createdAt,value
2023-09-17T00:01:08.526Z,10.10
2023-09-17T00:17:33.392Z,8.60
2023-09-17T00:22:41.090Z,9.40
2023-09-17T00:27:49.297Z,10.10
2023-09-17T00:32:56.809Z,10.20
2023-09-17T00:38:06.742Z,9.40
2023-09-17T00:43:14.866Z,9.60
2023-09-17T00:48:23.422Z,8.80
2023-09-17T00:53:31.170Z,9.60
2023-09-17T00:58:40.193Z,11.30
2023-09-17T01:03:48.480Z,9.60
2023-09-17T01:08:56.252Z,9.60
2023-09-17T01:14:17.379Z,9.60
2023-09-17T01:19:29.717Z,9.90
2023-09-17T01:24:47.326Z,10.00
2023-09-17T01:29:56.459Z,8.90
2023-09-17T01:35:04.391Z,9.90
2023-09-17T01:40:15.474Z,9.80
2023-09-17T01:45:24.176Z,9.60
2023-09-17T01:50:32.962Z,8.30
2023-09-17T01:55:40.690Z,8.80
2023-09-17T02:00:49.376Z,9.10
2023-09-17T02:05:56.821Z,8.50
2023-09-17T02:11:06.088Z,8.80
2023-09-17T02:16:14.138Z,9.90
2023-09-17T02:21:22.107Z,9.80
2023-09-17T02:26:29.716Z,8.90
2023-09-17T02:31:37.325Z,9.10
2023-09-17T02:36:45.327Z,10.70
2023-09-17T02:41:52.426Z,10.50
2023-09-17T02:46:59.641Z,9.60
2023-09-17T02:52:07.975Z,10.20
2023-09-17T02:57:15.285Z,9.40
2023-09-17T03:02:22.539Z,9.80
2023-09-17T03:07:29.827Z,10.00
2023-09-17T03:12:37.619Z,9.30
2023-09-17T03:23:16.469Z,9.40
2023-09-17T03:28:24.054Z,10.00
2023-09-17T03:33:32.221Z,9.90
2023-09-17T03:38:39.679Z,10.20
2023-09-17T03:43:47.443Z,9.40
2023-09-17T03:48:54.860Z,8.80
2023-09-17T03:54:03.091Z,9.50
2023-09-17T03:59:10.586Z,9.20
2023-09-17T04:04:17.837Z,9.50
2023-09-17T04:09:25.573Z,8.70
2023-09-17T04:14:33.726Z,10.40
2023-09-17T04:19:41.095Z,10.30
2023-09-17T04:24:54.889Z,9.10
2023-09-17T04:30:08.514Z,10.10
2023-09-17T04:35:19.193Z,9.10
2023-09-17T04:40:29.563Z,8.70
2023-09-17T04:45:38.793Z,9.80
2023-09-17T04:50:48.174Z,10.10
2023-09-17T04:55:56.419Z,8.90
2023-09-17T05:01:05.177Z,9.40
2023-09-17T05:06:12.451Z,10.60
2023-09-17T05:11:19.769Z,10.40
2023-09-17T05:16:27.124Z,9.60
2023-09-17T05:21:34.590Z,9.60
2023-09-17T05:26:42.175Z,8.60
2023-09-17T05:31:50.029Z,12.30
2023-09-17T05:36:58.334Z,11.90
2023-09-17T05:42:06.284Z,11.50
2023-09-17T05:47:14.045Z,10.80
2023-09-17T05:52:22.675Z,12.20
2023-09-17T05:57:30.196Z,12.40
2023-09-17T06:02:37.726Z,11.20
2023-09-17T06:07:45.337Z,11.20
2023-09-17T06:12:52.638Z,11.20
2023-09-17T06:18:02.929Z,11.70
2023-09-17T06:23:10.479Z,13.60
2023-09-17T06:28:18.470Z,13.60
2023-09-17T06:33:25.890Z,13.00
2023-09-17T06:38:33.691Z,12.10
2023-09-17T06:43:41.072Z,11.60
2023-09-17T06:48:48.547Z,13.30
2023-09-17T06:53:55.985Z,15.80
2023-09-17T06:59:05.262Z,14.70
2023-09-17T07:04:13.602Z,15.10
2023-09-17T07:09:21.424Z,12.90
2023-09-17T07:14:29.262Z,15.80
2023-09-17T07:19:37.226Z,16.60
2023-09-17T07:24:44.833Z,18.50
2023-09-17T07:29:53.566Z,14.20
2023-09-17T07:35:02.952Z,15.20
2023-09-17T07:40:12.644Z,15.30
2023-09-17T07:45:20.214Z,15.20
2023-09-17T07:50:27.683Z,15.70
2023-09-17T07:55:35.349Z,14.20
2023-09-17T08:00:42.971Z,12.80
2023-09-17T08:05:50.866Z,12.10
2023-09-17T08:10:58.984Z,13.80
2023-09-17T08:16:07.108Z,12.00
2023-09-17T08:21:15.071Z,11.10
2023-09-17T08:26:23.110Z,9.90
2023-09-17T08:31:30.438Z,8.30
2023-09-17T08:36:43.005Z,7.40
2023-09-17T08:41:51.664Z,6.70
2023-09-17T08:47:00.621Z,7.20
2023-09-17T08:52:12.026Z,7.10
2023-09-17T08:57:24.015Z,6.80
2023-09-17T09:02:35.252Z,6.70
2023-09-17T09:07:43.841Z,7.20
2023-09-17T09:12:52.691Z,6.90
2023-09-17T09:18:00.134Z,6.80
2023-09-17T09:23:08.770Z,5.80
2023-09-17T09:28:16.176Z,5.70
2023-09-17T09:33:25.022Z,5.40
2023-09-17T09:38:35.035Z,5.20
2023-09-17T09:43:45.415Z,5.00
2023-09-17T09:48:53.648Z,5.00
2023-09-17T09:54:01.053Z,5.20
2023-09-17T09:59:09.280Z,4.90
2023-09-17T10:04:16.815Z,4.90
2023-09-17T10:09:25.086Z,4.60
2023-09-17T10:14:37.316Z,4.40
2023-09-17T10:19:48.827Z,3.90
2023-09-17T10:24:57.107Z,4.10
2023-09-17T10:30:06.238Z,4.40
2023-09-17T10:35:15.857Z,3.80
2023-09-17T10:40:23.918Z,4.00
2023-09-17T10:45:36.552Z,4.20
2023-09-17T10:50:45.516Z,4.00
2023-09-17T10:55:59.118Z,4.30
2023-09-17T11:01:08.214Z,4.00
2023-09-17T11:06:25.542Z,4.40
2023-09-17T11:11:36.194Z,4.10
2023-09-17T11:16:44.493Z,4.50
2023-09-17T11:22:09.903Z,4.70
2023-09-17T11:27:22.996Z,4.50
2023-09-17T11:32:31.044Z,4.40
2023-09-17T11:37:38.954Z,4.20
2023-09-17T11:42:47.065Z,4.10
2023-09-17T11:47:54.614Z,3.70
2023-09-17T11:53:08.832Z,3.90
2023-09-17T11:58:21.848Z,3.50
2023-09-17T12:03:30.183Z,3.70
2023-09-17T12:08:37.970Z,3.80
2023-09-17T12:13:46.461Z,3.90
2023-09-17T12:19:03.696Z,3.70
2023-09-17T12:24:30.610Z,4.00
2023-09-17T12:29:38.763Z,3.90
2023-09-17T12:34:46.413Z,3.60
2023-09-17T12:39:55.131Z,3.60
2023-09-17T12:45:02.788Z,4.00
2023-09-17T12:50:12.036Z,4.20
2023-09-17T12:55:20.492Z,5.60
2023-09-17T13:00:27.969Z,4.30
2023-09-17T13:05:35.449Z,4.30
2023-09-17T13:10:43.121Z,4.00
2023-09-17T13:15:51.040Z,4.00
2023-09-17T13:20:58.845Z,3.90
2023-09-17T13:26:06.466Z,4.10
2023-09-17T13:31:14.810Z,4.00
2023-09-17T13:36:24.232Z,3.70
2023-09-17T13:41:33.202Z,4.50
2023-09-17T13:46:49.177Z,4.50
2023-09-17T13:51:57.066Z,3.80
2023-09-17T13:57:04.841Z,4.00
2023-09-17T14:02:14.173Z,4.30
2023-09-17T14:07:22.045Z,4.50
2023-09-17T14:12:29.682Z,4.40
2023-09-17T14:17:37.228Z,4.00
2023-09-17T14:22:44.800Z,4.20
2023-09-17T14:27:53.472Z,4.50
2023-09-17T14:33:02.547Z,4.70
2023-09-17T14:38:10.250Z,4.40
2023-09-17T14:43:17.548Z,4.30
2023-09-17T14:48:27.198Z,4.50
2023-09-17T14:53:35.056Z,4.00
2023-09-17T14:58:42.952Z,3.90
2023-09-17T15:03:50.905Z,4.40
2023-09-17T15:08:59.986Z,4.80
2023-09-17T15:14:07.775Z,4.00
2023-09-17T15:19:15.958Z,3.60
2023-09-17T15:24:23.395Z,4.10
2023-09-17T15:29:31.202Z,4.30
2023-09-17T15:34:42.033Z,4.40
2023-09-17T15:39:49.327Z,4.20
2023-09-17T15:44:57.228Z,4.20
2023-09-17T15:50:05.051Z,4.40
2023-09-17T15:55:14.707Z,4.60
2023-09-17T16:00:22.530Z,4.60
2023-09-17T16:05:30.370Z,4.20
2023-09-17T16:10:38.243Z,4.40
2023-09-17T16:15:45.757Z,4.70
2023-09-17T16:20:53.481Z,4.20
2023-09-17T16:26:01.983Z,5.00
2023-09-17T16:31:09.753Z,4.80
2023-09-17T16:36:18.297Z,5.50
2023-09-17T16:41:25.941Z,5.90
2023-09-17T16:46:34.586Z,5.50
2023-09-17T16:51:48.101Z,5.30
2023-09-17T16:56:56.011Z,6.10
2023-09-17T17:02:03.777Z,5.80
2023-09-17T17:07:11.028Z,6.20
2023-09-17T17:12:18.561Z,6.40
2023-09-17T17:17:26.252Z,5.40
2023-09-17T17:22:45.338Z,6.10
2023-09-17T17:27:53.018Z,6.20
2023-09-17T17:33:00.364Z,6.50
2023-09-17T17:38:08.859Z,6.00
2023-09-17T17:43:16.991Z,6.20
2023-09-17T17:48:24.700Z,7.10
2023-09-17T17:53:37.401Z,6.00
2023-09-17T17:58:45.790Z,6.10
2023-09-17T18:03:53.941Z,5.70
2023-09-17T18:09:02.092Z,7.00
2023-09-17T18:14:09.950Z,7.00
2023-09-17T18:24:11.435Z,8.00
2023-09-17T18:29:22.304Z,8.60
2023-09-17T18:34:30.997Z,7.90
2023-09-17T18:39:39.208Z,8.00
2023-09-17T18:44:47.283Z,9.10
2023-09-17T18:49:55.432Z,8.50
2023-09-17T18:55:03.833Z,8.70
2023-09-17T19:00:14.660Z,8.80
2023-09-17T19:05:22.463Z,7.50
2023-09-17T19:10:29.962Z,8.20
2023-09-17T19:15:39.338Z,8.70
2023-09-17T19:20:48.197Z,8.90
2023-09-17T19:25:58.009Z,8.40
2023-09-17T19:31:06.122Z,8.30
2023-09-17T19:36:14.259Z,8.10
2023-09-17T19:41:24.528Z,7.60
2023-09-17T19:46:33.110Z,8.30
2023-09-17T19:51:40.972Z,8.60
2023-09-17T19:56:49.253Z,8.90
2023-09-17T20:01:57.294Z,7.30
2023-09-17T20:07:05.233Z,7.60
2023-09-17T20:12:12.997Z,8.90
2023-09-17T20:17:20.757Z,8.30
2023-09-17T20:22:31.474Z,8.60
2023-09-17T20:27:40.640Z,9.10
2023-09-17T20:32:48.109Z,8.30
2023-09-17T20:37:56.182Z,8.10
2023-09-17T20:43:03.802Z,7.80
2023-09-17T20:48:11.446Z,8.90
2023-09-17T20:53:19.104Z,8.80
2023-09-17T20:58:26.984Z,7.20
2023-09-17T21:03:35.091Z,7.90
2023-09-17T21:08:42.812Z,8.60
2023-09-17T21:13:50.544Z,8.70
2023-09-17T21:18:58.112Z,7.80
2023-09-17T21:24:06.111Z,7.50
2023-09-17T21:29:14.000Z,8.40
2023-09-17T21:44:07.501Z,8.10
2023-09-17T21:49:16.792Z,8.20
2023-09-17T21:54:24.583Z,7.80
2023-09-17T21:59:31.820Z,8.30
2023-09-17T22:04:38.912Z,8.40
2023-09-17T22:09:46.489Z,7.80
2023-09-17T22:14:54.258Z,8.90
2023-09-17T22:25:31.372Z,7.50
2023-09-17T22:30:38.860Z,8.70
2023-09-17T22:35:49.008Z,8.20
2023-09-17T22:40:56.253Z,8.50
2023-09-17T22:46:07.537Z,7.20
2023-09-17T22:51:14.864Z,7.30
2023-09-17T22:56:22.997Z,7.80
2023-09-17T23:01:31.124Z,9.30
2023-09-17T23:06:38.647Z,7.30
2023-09-17T23:11:46.455Z,7.10
2023-09-17T23:16:54.600Z,7.50
2023-09-17T23:22:07.038Z,8.00
2023-09-17T23:27:14.481Z,8.70
2023-09-17T23:32:22.487Z,8.40
2023-09-17T23:37:30.044Z,7.60
2023-09-17T23:42:37.769Z,7.50
2023-09-17T23:47:45.437Z,8.10
2023-09-17T23:52:53.186Z,8.50
2023-09-17T23:58:01.402Z,7.90
